Aberdeen, Kentucky
Current Conditions -  °F | °C
As of 5:53 AM on Thursday 18 Dec 2014 (Local Time) from KBWG Reporting Station
Overcast Overcast  
Wind Chill: 25°   Ceiling: 7000
Heat Index: 31°   Visibility: 7mi
Dew Point: 26°   Wind: 6mph
Humidity: 82%   Direction: 70°ENE
Pressure: 30.26"   Gusts: NA
Location:  37.25°N, 86.68°W
Report Text: KBWG 181153Z AUTO 07005KT 7SM OVC070 M01/M03 A3026 RMK AO2 SLP251 60002 70002 T10061033 11006 21011 56008
Loading
Personal Weather Stations






























Interactive Weather Map New forecast layout! Learn more

10-Day Weather Forecast

Advertisements
Track Severe Weather on mobile